Korhogo, Korhogo Airport (DIKO)

NameKorhogo Airport
CityKorhogo
CountryCote d'Ivoire
ICAODIKO
IATAHGO
Altitude370 m
CoordinatesGoogle Map
Live Air TrafficLiveATC.net
METARDIKO 131900Z 34002KT 3000 HZ NSC 28/15 Q1011 NOSIG
2017-12-13 19:00:00 Wind: North-Northwest (340°) 1.03 m/s - Visibility: 3000 m - Weather: Haze - Temperature: 28 °C - Dew point: 15 °C - Humidity: 45.1% - Pressure: 1011 hPa
Statistics

The table below shows the detailed information of all flights to/from Korhogo, Korhogo Airport (DIKO).